sensor_id;sensor_type;location;lat;lon;timestamp;P1;durP1;ratioP1;P2;durP2;ratioP2
35743;SDS011;21867;52.012;4.324;2023-04-01T00:00:53;45.43;;;11.53;;
35743;SDS011;21867;52.012;4.324;2023-04-01T00:03:20;60.93;;;12.37;;
35743;SDS011;21867;52.012;4.324;2023-04-01T00:05:48;47.00;;;11.50;;
35743;SDS011;21867;52.012;4.324;2023-04-01T00:08:16;50.13;;;11.97;;
35743;SDS011;21867;52.012;4.324;2023-04-01T00:10:53;43.50;;;11.57;;
35743;SDS011;21867;52.012;4.324;2023-04-01T00:13:42;53.33;;;10.73;;
35743;SDS011;21867;52.012;4.324;2023-04-01T00:19:02;43.67;;;11.60;;
35743;SDS011;21867;52.012;4.324;2023-04-01T00:21:29;42.67;;;12.03;;
35743;SDS011;21867;52.012;4.324;2023-04-01T00:23:56;35.33;;;9.50;;
35743;SDS011;21867;52.012;4.324;2023-04-01T00:26:24;32.00;;;9.43;;
35743;SDS011;21867;52.012;4.324;2023-04-01T00:28:53;42.80;;;11.93;;
35743;SDS011;21867;52.012;4.324;2023-04-01T00:31:20;38.27;;;10.57;;
35743;SDS011;21867;52.012;4.324;2023-04-01T00:33:47;35.00;;;10.00;;
35743;SDS011;21867;52.012;4.324;2023-04-01T00:36:16;32.83;;;8.90;;
35743;SDS011;21867;52.012;4.324;2023-04-01T00:38:43;43.10;;;10.90;;
35743;SDS011;21867;52.012;4.324;2023-04-01T00:50:31;26.00;;;8.43;;
35743;SDS011;21867;52.012;4.324;2023-04-01T00:53:00;36.07;;;9.90;;
35743;SDS011;21867;52.012;4.324;2023-04-01T00:55:28;51.47;;;12.53;;
35743;SDS011;21867;52.012;4.324;2023-04-01T00:57:56;26.47;;;8.83;;
35743;SDS011;21867;52.012;4.324;2023-04-01T01:03:15;23.63;;;8.40;;
35743;SDS011;21867;52.012;4.324;2023-04-01T01:05:52;27.57;;;8.77;;
35743;SDS011;21867;52.012;4.324;2023-04-01T01:08:23;24.13;;;8.10;;
35743;SDS011;21867;52.012;4.324;2023-04-01T01:11:02;19.37;;;7.40;;
35743;SDS011;21867;52.012;4.324;2023-04-01T01:16:47;17.30;;;7.00;;
35743;SDS011;21867;52.012;4.324;2023-04-01T01:19:22;26.57;;;7.47;;
35743;SDS011;21867;52.012;4.324;2023-04-01T01:27:24;20.73;;;6.80;;
35743;SDS011;21867;52.012;4.324;2023-04-01T01:32:46;17.87;;;7.20;;
35743;SDS011;21867;52.012;4.324;2023-04-01T01:35:20;16.70;;;7.00;;
35743;SDS011;21867;52.012;4.324;2023-04-01T01:37:50;16.40;;;6.10;;
35743;SDS011;21867;52.012;4.324;2023-04-01T01:40:18;17.03;;;7.10;;
35743;SDS011;21867;52.012;4.324;2023-04-01T01:42:49;14.30;;;6.03;;
35743;SDS011;21867;52.012;4.324;2023-04-01T01:52:04;14.37;;;5.77;;
35743;SDS011;21867;52.012;4.324;2023-04-01T01:54:31;14.10;;;5.07;;
35743;SDS011;21867;52.012;4.324;2023-04-01T01:57:01;18.03;;;5.43;;
35743;SDS011;21867;52.012;4.324;2023-04-01T01:59:30;15.17;;;5.53;;
35743;SDS011;21867;52.012;4.324;2023-04-01T02:02:00;11.33;;;5.43;;
35743;SDS011;21867;52.012;4.324;2023-04-01T02:04:27;13.87;;;4.83;;
35743;SDS011;21867;52.012;4.324;2023-04-01T02:06:55;9.30;;;5.53;;
35743;SDS011;21867;52.012;4.324;2023-04-01T02:09:26;13.50;;;5.40;;
35743;SDS011;21867;52.012;4.324;2023-04-01T02:11:55;9.13;;;3.77;;
35743;SDS011;21867;52.012;4.324;2023-04-01T02:14:23;6.93;;;3.50;;
35743;SDS011;21867;52.012;4.324;2023-04-01T02:16:53;7.37;;;3.33;;
35743;SDS011;21867;52.012;4.324;2023-04-01T02:22:13;5.23;;;3.27;;
35743;SDS011;21867;52.012;4.324;2023-04-01T02:24:43;6.17;;;2.80;;
35743;SDS011;21867;52.012;4.324;2023-04-01T02:27:12;3.70;;;3.40;;
35743;SDS011;21867;52.012;4.324;2023-04-01T02:29:40;7.63;;;4.03;;
35743;SDS011;21867;52.012;4.324;2023-04-01T02:32:07;6.67;;;3.80;;
35743;SDS011;21867;52.012;4.324;2023-04-01T02:43:25;11.27;;;6.50;;
35743;SDS011;21867;52.012;4.324;2023-04-01T02:45:53;11.43;;;6.03;;
35743;SDS011;21867;52.012;4.324;2023-04-01T02:48:20;12.20;;;6.87;;
35743;SDS011;21867;52.012;4.324;2023-04-01T02:50:54;16.17;;;8.73;;
35743;SDS011;21867;52.012;4.324;2023-04-01T02:53:21;15.33;;;8.00;;
35743;SDS011;21867;52.012;4.324;2023-04-01T02:55:48;15.80;;;9.10;;
35743;SDS011;21867;52.012;4.324;2023-04-01T02:58:16;16.43;;;9.30;;
35743;SDS011;21867;52.012;4.324;2023-04-01T03:00:45;23.03;;;10.87;;
35743;SDS011;21867;52.012;4.324;2023-04-01T03:03:12;20.80;;;11.07;;
35743;SDS011;21867;52.012;4.324;2023-04-01T03:05:40;17.30;;;9.50;;
35743;SDS011;21867;52.012;4.324;2023-04-01T03:08:08;22.00;;;11.73;;
35743;SDS011;21867;52.012;4.324;2023-04-01T03:10:35;24.70;;;11.53;;
35743;SDS011;21867;52.012;4.324;2023-04-01T03:13:03;21.53;;;12.40;;
35743;SDS011;21867;52.012;4.324;2023-04-01T03:21:48;21.97;;;11.50;;
35743;SDS011;21867;52.012;4.324;2023-04-01T03:24:15;25.03;;;11.87;;
35743;SDS011;21867;52.012;4.324;2023-04-01T03:26:43;29.07;;;11.20;;
35743;SDS011;21867;52.012;4.324;2023-04-01T03:29:10;22.53;;;11.27;;
35743;SDS011;21867;52.012;4.324;2023-04-01T03:31:37;21.63;;;10.23;;
35743;SDS011;21867;52.012;4.324;2023-04-01T03:34:17;19.37;;;10.90;;
35743;SDS011;21867;52.012;4.324;2023-04-01T03:36:45;12.93;;;8.80;;
35743;SDS011;21867;52.012;4.324;2023-04-01T03:39:13;17.63;;;10.50;;
35743;SDS011;21867;52.012;4.324;2023-04-01T03:41:56;17.77;;;9.83;;
35743;SDS011;21867;52.012;4.324;2023-04-01T03:44:36;18.37;;;9.97;;
35743;SDS011;21867;52.012;4.324;2023-04-01T03:53:26;20.30;;;10.83;;
35743;SDS011;21867;52.012;4.324;2023-04-01T03:55:58;16.27;;;10.67;;
35743;SDS011;21867;52.012;4.324;2023-04-01T03:58:30;17.13;;;11.33;;
35743;SDS011;21867;52.012;4.324;2023-04-01T04:00:57;13.70;;;8.40;;
35743;SDS011;21867;52.012;4.324;2023-04-01T04:06:12;19.37;;;10.63;;
35743;SDS011;21867;52.012;4.324;2023-04-01T04:08:40;15.57;;;9.47;;
35743;SDS011;21867;52.012;4.324;2023-04-01T04:11:09;20.13;;;10.10;;
35743;SDS011;21867;52.012;4.324;2023-04-01T04:22:13;16.33;;;9.93;;
35743;SDS011;21867;52.012;4.324;2023-04-01T04:24:40;12.13;;;7.93;;
35743;SDS011;21867;52.012;4.324;2023-04-01T04:27:12;11.87;;;8.57;;
35743;SDS011;21867;52.012;4.324;2023-04-01T04:30:00;18.60;;;9.10;;
35743;SDS011;21867;52.012;4.324;2023-04-01T04:32:28;14.70;;;8.07;;
35743;SDS011;21867;52.012;4.324;2023-04-01T04:37:32;16.43;;;8.63;;
35743;SDS011;21867;52.012;4.324;2023-04-01T04:40:00;10.63;;;7.47;;
35743;SDS011;21867;52.012;4.324;2023-04-01T04:42:30;14.47;;;8.47;;
35743;SDS011;21867;52.012;4.324;2023-04-01T04:48:22;19.07;;;8.00;;
35743;SDS011;21867;52.012;4.324;2023-04-01T04:50:50;11.70;;;8.00;;
35743;SDS011;21867;52.012;4.324;2023-04-01T04:53:20;15.03;;;7.87;;
35743;SDS011;21867;52.012;4.324;2023-04-01T04:55:48;11.57;;;8.67;;
35743;SDS011;21867;52.012;4.324;2023-04-01T04:58:38;18.63;;;8.60;;
35743;SDS011;21867;52.012;4.324;2023-04-01T05:01:08;14.80;;;8.23;;
35743;SDS011;21867;52.012;4.324;2023-04-01T05:06:25;14.67;;;8.07;;
35743;SDS011;21867;52.012;4.324;2023-04-01T05:08:53;12.63;;;7.30;;
35743;SDS011;21867;52.012;4.324;2023-04-01T05:11:21;17.57;;;9.07;;
35743;SDS011;21867;52.012;4.324;2023-04-01T05:20:18;11.73;;;7.67;;
35743;SDS011;21867;52.012;4.324;2023-04-01T05:22:45;13.17;;;7.77;;
35743;SDS011;21867;52.012;4.324;2023-04-01T05:25:12;19.27;;;8.57;;
35743;SDS011;21867;52.012;4.324;2023-04-01T05:27:40;15.33;;;8.30;;
35743;SDS011;21867;52.012;4.324;2023-04-01T05:30:07;12.93;;;7.67;;
35743;SDS011;21867;52.012;4.324;2023-04-01T05:33:00;15.93;;;8.27;;
35743;SDS011;21867;52.012;4.324;2023-04-01T05:35:29;15.63;;;8.47;;
35743;SDS011;21867;52.012;4.324;2023-04-01T05:37:56;15.93;;;8.37;;
35743;SDS011;21867;52.012;4.324;2023-04-01T05:40:24;17.63;;;7.53;;
35743;SDS011;21867;52.012;4.324;2023-04-01T05:42:52;20.07;;;8.53;;
35743;SDS011;21867;52.012;4.324;2023-04-01T05:49:11;19.17;;;7.83;;
35743;SDS011;21867;52.012;4.324;2023-04-01T05:51:40;17.87;;;7.47;;
35743;SDS011;21867;52.012;4.324;2023-04-01T05:54:08;13.50;;;7.70;;
35743;SDS011;21867;52.012;4.324;2023-04-01T05:56:36;20.37;;;7.10;;
35743;SDS011;21867;52.012;4.324;2023-04-01T05:59:03;15.40;;;7.17;;
35743;SDS011;21867;52.012;4.324;2023-04-01T06:01:31;12.40;;;6.90;;
35743;SDS011;21867;52.012;4.324;2023-04-01T06:06:34;16.93;;;7.87;;
35743;SDS011;21867;52.012;4.324;2023-04-01T06:09:12;13.63;;;7.17;;
35743;SDS011;21867;52.012;4.324;2023-04-01T06:11:48;15.17;;;8.27;;
35743;SDS011;21867;52.012;4.324;2023-04-01T06:14:21;15.20;;;8.43;;
35743;SDS011;21867;52.012;4.324;2023-04-01T06:16:59;14.10;;;7.07;;
35743;SDS011;21867;52.012;4.324;2023-04-01T06:26:22;18.00;;;8.67;;
35743;SDS011;21867;52.012;4.324;2023-04-01T06:28:55;12.50;;;7.27;;
35743;SDS011;21867;52.012;4.324;2023-04-01T06:31:32;16.30;;;7.93;;
35743;SDS011;21867;52.012;4.324;2023-04-01T06:34:12;15.87;;;6.97;;
35743;SDS011;21867;52.012;4.324;2023-04-01T06:36:51;14.27;;;6.93;;
35743;SDS011;21867;52.012;4.324;2023-04-01T06:39:40;14.87;;;8.90;;
35743;SDS011;21867;52.012;4.324;2023-04-01T06:42:14;13.80;;;6.80;;
35743;SDS011;21867;52.012;4.324;2023-04-01T06:45:01;13.00;;;6.97;;
35743;SDS011;21867;52.012;4.324;2023-04-01T06:47:58;10.83;;;7.37;;
35743;SDS011;21867;52.012;4.324;2023-04-01T06:50:49;9.60;;;6.43;;
35743;SDS011;21867;52.012;4.324;2023-04-01T06:53:39;8.37;;;5.77;;
35743;SDS011;21867;52.012;4.324;2023-04-01T06:56:32;5.97;;;4.57;;
35743;SDS011;21867;52.012;4.324;2023-04-01T07:05:34;6.63;;;4.30;;
35743;SDS011;21867;52.012;4.324;2023-04-01T07:08:02;3.97;;;3.67;;
35743;SDS011;21867;52.012;4.324;2023-04-01T07:10:33;5.87;;;3.73;;
35743;SDS011;21867;52.012;4.324;2023-04-01T07:13:29;3.60;;;3.30;;
35743;SDS011;21867;52.012;4.324;2023-04-01T07:16:05;4.33;;;3.47;;
35743;SDS011;21867;52.012;4.324;2023-04-01T07:21:29;3.80;;;3.23;;
35743;SDS011;21867;52.012;4.324;2023-04-01T07:24:01;3.83;;;3.47;;
35743;SDS011;21867;52.012;4.324;2023-04-01T07:26:35;4.90;;;4.33;;
35743;SDS011;21867;52.012;4.324;2023-04-01T07:35:45;6.30;;;5.60;;
35743;SDS011;21867;52.012;4.324;2023-04-01T07:38:21;6.73;;;5.20;;
35743;SDS011;21867;52.012;4.324;2023-04-01T07:40:55;7.07;;;6.20;;
35743;SDS011;21867;52.012;4.324;2023-04-01T07:43:32;7.27;;;6.10;;
35743;SDS011;21867;52.012;4.324;2023-04-01T07:46:22;8.37;;;6.50;;
35743;SDS011;21867;52.012;4.324;2023-04-01T07:48:54;7.70;;;6.50;;
35743;SDS011;21867;52.012;4.324;2023-04-01T07:51:40;9.40;;;7.43;;
35743;SDS011;21867;52.012;4.324;2023-04-01T07:54:13;9.33;;;7.10;;
35743;SDS011;21867;52.012;4.324;2023-04-01T07:56:45;11.20;;;8.13;;
35743;SDS011;21867;52.012;4.324;2023-04-01T08:02:54;11.43;;;8.70;;
35743;SDS011;21867;52.012;4.324;2023-04-01T08:05:27;12.13;;;7.87;;
35743;SDS011;21867;52.012;4.324;2023-04-01T08:07:59;12.40;;;8.67;;
35743;SDS011;21867;52.012;4.324;2023-04-01T08:10:51;18.70;;;8.40;;
35743;SDS011;21867;52.012;4.324;2023-04-01T08:13:39;14.27;;;8.90;;
35743;SDS011;21867;52.012;4.324;2023-04-01T08:16:32;17.57;;;9.27;;
35743;SDS011;21867;52.012;4.324;2023-04-01T08:19:04;16.50;;;9.30;;
35743;SDS011;21867;52.012;4.324;2023-04-01T08:21:39;15.33;;;9.97;;
35743;SDS011;21867;52.012;4.324;2023-04-01T08:24:11;18.70;;;11.07;;
35743;SDS011;21867;52.012;4.324;2023-04-01T08:26:43;19.47;;;9.97;;
35743;SDS011;21867;52.012;4.324;2023-04-01T08:32:11;11.93;;;7.33;;
35743;SDS011;21867;52.012;4.324;2023-04-01T08:34:40;15.30;;;8.20;;
35743;SDS011;21867;52.012;4.324;2023-04-01T08:37:19;14.87;;;8.67;;
35743;SDS011;21867;52.012;4.324;2023-04-01T08:39:52;16.23;;;8.67;;
35743;SDS011;21867;52.012;4.324;2023-04-01T08:42:28;18.20;;;9.70;;
35743;SDS011;21867;52.012;4.324;2023-04-01T08:45:26;16.23;;;9.80;;
35743;SDS011;21867;52.012;4.324;2023-04-01T08:51:11;13.80;;;8.67;;
35743;SDS011;21867;52.012;4.324;2023-04-01T08:53:49;19.90;;;9.17;;
35743;SDS011;21867;52.012;4.324;2023-04-01T08:56:20;12.47;;;7.50;;
35743;SDS011;21867;52.012;4.324;2023-04-01T09:05:24;13.87;;;8.60;;
35743;SDS011;21867;52.012;4.324;2023-04-01T09:07:57;10.13;;;7.33;;
35743;SDS011;21867;52.012;4.324;2023-04-01T09:13:54;19.27;;;10.10;;
35743;SDS011;21867;52.012;4.324;2023-04-01T09:16:29;12.47;;;9.13;;
35743;SDS011;21867;52.012;4.324;2023-04-01T09:19:11;14.33;;;10.53;;
35743;SDS011;21867;52.012;4.324;2023-04-01T09:24:49;18.00;;;9.97;;
35743;SDS011;21867;52.012;4.324;2023-04-01T09:34:37;9.73;;;7.73;;
35743;SDS011;21867;52.012;4.324;2023-04-01T09:37:19;13.67;;;8.10;;
35743;SDS011;21867;52.012;4.324;2023-04-01T09:42:42;9.40;;;7.47;;
35743;SDS011;21867;52.012;4.324;2023-04-01T09:45:29;8.97;;;7.77;;
35743;SDS011;21867;52.012;4.324;2023-04-01T09:48:05;10.97;;;8.00;;
35743;SDS011;21867;52.012;4.324;2023-04-01T09:50:39;10.93;;;8.80;;
35743;SDS011;21867;52.012;4.324;2023-04-01T09:53:14;10.83;;;8.60;;
35743;SDS011;21867;52.012;4.324;2023-04-01T09:58:33;14.50;;;8.93;;
35743;SDS011;21867;52.012;4.324;2023-04-01T10:13:20;12.27;;;8.23;;
35743;SDS011;21867;52.012;4.324;2023-04-01T10:16:03;11.80;;;8.07;;
35743;SDS011;21867;52.012;4.324;2023-04-01T10:24:31;8.50;;;6.73;;
35743;SDS011;21867;52.012;4.324;2023-04-01T10:27:10;10.33;;;6.83;;
35743;SDS011;21867;52.012;4.324;2023-04-01T10:30:26;11.40;;;6.90;;
35743;SDS011;21867;52.012;4.324;2023-04-01T10:38:53;12.40;;;7.77;;
35743;SDS011;21867;52.012;4.324;2023-04-01T10:41:38;16.20;;;10.00;;
35743;SDS011;21867;52.012;4.324;2023-04-01T10:48:22;14.93;;;9.17;;
35743;SDS011;21867;52.012;4.324;2023-04-01T10:51:01;12.77;;;8.03;;
35743;SDS011;21867;52.012;4.324;2023-04-01T10:53:38;13.17;;;8.67;;
35743;SDS011;21867;52.012;4.324;2023-04-01T11:05:31;13.73;;;9.03;;
35743;SDS011;21867;52.012;4.324;2023-04-01T11:08:20;17.73;;;9.23;;
35743;SDS011;21867;52.012;4.324;2023-04-01T11:19:39;16.30;;;9.70;;
35743;SDS011;21867;52.012;4.324;2023-04-01T11:22:18;17.47;;;10.57;;
35743;SDS011;21867;52.012;4.324;2023-04-01T11:25:08;17.83;;;10.40;;
35743;SDS011;21867;52.012;4.324;2023-04-01T11:27:53;23.80;;;12.03;;
35743;SDS011;21867;52.012;4.324;2023-04-01T11:30:27;22.33;;;12.70;;
35743;SDS011;21867;52.012;4.324;2023-04-01T11:41:34;19.23;;;11.93;;
35743;SDS011;21867;52.012;4.324;2023-04-01T11:50:53;14.00;;;8.70;;
35743;SDS011;21867;52.012;4.324;2023-04-01T11:53:29;16.53;;;9.97;;
35743;SDS011;21867;52.012;4.324;2023-04-01T11:56:02;14.53;;;9.83;;
35743;SDS011;21867;52.012;4.324;2023-04-01T11:58:47;15.27;;;9.80;;
35743;SDS011;21867;52.012;4.324;2023-04-01T12:01:24;19.37;;;11.07;;
35743;SDS011;21867;52.012;4.324;2023-04-01T12:07:01;16.93;;;10.67;;
35743;SDS011;21867;52.012;4.324;2023-04-01T12:09:31;15.83;;;10.27;;
35743;SDS011;21867;52.012;4.324;2023-04-01T12:20:45;12.40;;;8.37;;
35743;SDS011;21867;52.012;4.324;2023-04-01T12:28:53;14.93;;;8.30;;
35743;SDS011;21867;52.012;4.324;2023-04-01T12:34:25;13.70;;;9.47;;
35743;SDS011;21867;52.012;4.324;2023-04-01T12:37:00;15.63;;;9.30;;
35743;SDS011;21867;52.012;4.324;2023-04-01T12:39:35;11.57;;;7.90;;
35743;SDS011;21867;52.012;4.324;2023-04-01T12:51:50;15.80;;;9.27;;
35743;SDS011;21867;52.012;4.324;2023-04-01T12:57:18;11.23;;;7.40;;
35743;SDS011;21867;52.012;4.324;2023-04-01T12:59:53;12.33;;;7.60;;
35743;SDS011;21867;52.012;4.324;2023-04-01T13:02:37;13.60;;;9.27;;
35743;SDS011;21867;52.012;4.324;2023-04-01T13:07:56;14.43;;;8.23;;
35743;SDS011;21867;52.012;4.324;2023-04-01T13:10:27;14.60;;;8.90;;
35743;SDS011;21867;52.012;4.324;2023-04-01T13:18:36;15.73;;;7.83;;
35743;SDS011;21867;52.012;4.324;2023-04-01T13:21:08;15.60;;;7.67;;
35743;SDS011;21867;52.012;4.324;2023-04-01T13:23:44;15.03;;;7.70;;
35743;SDS011;21867;52.012;4.324;2023-04-01T13:26:18;10.77;;;6.13;;
35743;SDS011;21867;52.012;4.324;2023-04-01T13:28:47;16.23;;;7.53;;
35743;SDS011;21867;52.012;4.324;2023-04-01T13:31:29;17.80;;;6.17;;
35743;SDS011;21867;52.012;4.324;2023-04-01T13:34:06;13.50;;;6.50;;
35743;SDS011;21867;52.012;4.324;2023-04-01T13:36:39;12.70;;;5.57;;
35743;SDS011;21867;52.012;4.324;2023-04-01T13:39:15;9.13;;;5.87;;
35743;SDS011;21867;52.012;4.324;2023-04-01T13:54:16;10.67;;;5.50;;
35743;SDS011;21867;52.012;4.324;2023-04-01T13:56:55;10.87;;;5.60;;
35743;SDS011;21867;52.012;4.324;2023-04-01T13:59:29;11.40;;;4.97;;
35743;SDS011;21867;52.012;4.324;2023-04-01T14:02:07;10.10;;;5.40;;
35743;SDS011;21867;52.012;4.324;2023-04-01T14:04:49;8.97;;;4.27;;
35743;SDS011;21867;52.012;4.324;2023-04-01T14:07:30;10.33;;;4.90;;
35743;SDS011;21867;52.012;4.324;2023-04-01T14:10:04;9.87;;;5.13;;
35743;SDS011;21867;52.012;4.324;2023-04-01T14:16:27;10.57;;;4.97;;
35743;SDS011;21867;52.012;4.324;2023-04-01T14:19:11;12.10;;;5.00;;
35743;SDS011;21867;52.012;4.324;2023-04-01T14:21:46;10.47;;;4.73;;
35743;SDS011;21867;52.012;4.324;2023-04-01T14:24:23;12.93;;;5.27;;
35743;SDS011;21867;52.012;4.324;2023-04-01T14:29:47;10.47;;;5.47;;
35743;SDS011;21867;52.012;4.324;2023-04-01T14:33:01;9.70;;;5.30;;
35743;SDS011;21867;52.012;4.324;2023-04-01T14:35:37;15.20;;;7.57;;
35743;SDS011;21867;52.012;4.324;2023-04-01T14:38:10;10.60;;;6.10;;
35743;SDS011;21867;52.012;4.324;2023-04-01T14:41:00;12.30;;;6.63;;
35743;SDS011;21867;52.012;4.324;2023-04-01T14:49:32;16.30;;;6.37;;
35743;SDS011;21867;52.012;4.324;2023-04-01T14:52:03;14.33;;;6.13;;
35743;SDS011;21867;52.012;4.324;2023-04-01T14:54:32;16.40;;;6.67;;
35743;SDS011;21867;52.012;4.324;2023-04-01T14:57:05;19.13;;;6.03;;
35743;SDS011;21867;52.012;4.324;2023-04-01T15:02:35;17.93;;;5.77;;
35743;SDS011;21867;52.012;4.324;2023-04-01T15:05:10;16.27;;;6.57;;
35743;SDS011;21867;52.012;4.324;2023-04-01T15:19:49;17.53;;;5.57;;
35743;SDS011;21867;52.012;4.324;2023-04-01T15:22:26;17.57;;;5.37;;
35743;SDS011;21867;52.012;4.324;2023-04-01T15:24:59;17.77;;;6.17;;
35743;SDS011;21867;52.012;4.324;2023-04-01T15:27:31;17.73;;;5.37;;
35743;SDS011;21867;52.012;4.324;2023-04-01T15:32:45;16.10;;;5.37;;
35743;SDS011;21867;52.012;4.324;2023-04-01T15:35:18;14.10;;;5.30;;
35743;SDS011;21867;52.012;4.324;2023-04-01T15:37:48;14.50;;;5.10;;
35743;SDS011;21867;52.012;4.324;2023-04-01T15:46:44;18.87;;;5.80;;
35743;SDS011;21867;52.012;4.324;2023-04-01T15:49:26;18.03;;;5.43;;
35743;SDS011;21867;52.012;4.324;2023-04-01T15:51:56;15.90;;;5.60;;
35743;SDS011;21867;52.012;4.324;2023-04-01T15:54:28;11.13;;;5.33;;
35743;SDS011;21867;52.012;4.324;2023-04-01T15:57:04;24.17;;;5.80;;
35743;SDS011;21867;52.012;4.324;2023-04-01T16:02:27;16.23;;;5.47;;
35743;SDS011;21867;52.012;4.324;2023-04-01T16:04:58;10.43;;;4.30;;
35743;SDS011;21867;52.012;4.324;2023-04-01T16:07:30;13.47;;;5.10;;
35743;SDS011;21867;52.012;4.324;2023-04-01T16:10:07;17.73;;;4.40;;
35743;SDS011;21867;52.012;4.324;2023-04-01T16:12:42;9.63;;;3.83;;
35743;SDS011;21867;52.012;4.324;2023-04-01T16:21:54;16.90;;;4.73;;
35743;SDS011;21867;52.012;4.324;2023-04-01T16:24:30;13.30;;;4.53;;
35743;SDS011;21867;52.012;4.324;2023-04-01T16:27:16;10.60;;;5.03;;
35743;SDS011;21867;52.012;4.324;2023-04-01T16:29:48;13.10;;;5.23;;
35743;SDS011;21867;52.012;4.324;2023-04-01T16:32:29;15.70;;;5.43;;
35743;SDS011;21867;52.012;4.324;2023-04-01T16:35:03;7.53;;;4.80;;
35743;SDS011;21867;52.012;4.324;2023-04-01T16:37:32;16.33;;;5.43;;
35743;SDS011;21867;52.012;4.324;2023-04-01T16:40:10;16.47;;;5.73;;
35743;SDS011;21867;52.012;4.324;2023-04-01T16:42:40;9.73;;;5.07;;
35743;SDS011;21867;52.012;4.324;2023-04-01T16:45:22;9.27;;;4.60;;
35743;SDS011;21867;52.012;4.324;2023-04-01T16:47:51;10.77;;;5.00;;
35743;SDS011;21867;52.012;4.324;2023-04-01T16:50:20;11.27;;;4.90;;
35743;SDS011;21867;52.012;4.324;2023-04-01T16:52:53;17.57;;;5.13;;
35743;SDS011;21867;52.012;4.324;2023-04-01T16:55:34;10.40;;;4.77;;
35743;SDS011;21867;52.012;4.324;2023-04-01T17:01:00;11.40;;;4.10;;
35743;SDS011;21867;52.012;4.324;2023-04-01T17:03:30;12.27;;;5.23;;
35743;SDS011;21867;52.012;4.324;2023-04-01T17:06:02;10.00;;;6.00;;
35743;SDS011;21867;52.012;4.324;2023-04-01T17:08:34;11.80;;;4.80;;
35743;SDS011;21867;52.012;4.324;2023-04-01T17:11:06;8.57;;;3.90;;
35743;SDS011;21867;52.012;4.324;2023-04-01T17:13:37;8.87;;;4.20;;
35743;SDS011;21867;52.012;4.324;2023-04-01T17:16:37;8.43;;;4.70;;
35743;SDS011;21867;52.012;4.324;2023-04-01T17:19:12;7.97;;;5.10;;
35743;SDS011;21867;52.012;4.324;2023-04-01T17:21:47;6.27;;;4.87;;
35743;SDS011;21867;52.012;4.324;2023-04-01T17:24:21;5.00;;;4.50;;
35743;SDS011;21867;52.012;4.324;2023-04-01T17:27:22;6.37;;;4.60;;
35743;SDS011;21867;52.012;4.324;2023-04-01T17:36:11;5.07;;;4.67;;
35743;SDS011;21867;52.012;4.324;2023-04-01T17:38:48;4.60;;;4.20;;
35743;SDS011;21867;52.012;4.324;2023-04-01T17:41:19;6.40;;;4.67;;
35743;SDS011;21867;52.012;4.324;2023-04-01T17:46:37;5.50;;;4.33;;
35743;SDS011;21867;52.012;4.324;2023-04-01T17:49:12;4.57;;;4.10;;
35743;SDS011;21867;52.012;4.324;2023-04-01T17:51:46;5.17;;;4.63;;
35743;SDS011;21867;52.012;4.324;2023-04-01T17:54:21;5.33;;;4.93;;
35743;SDS011;21867;52.012;4.324;2023-04-01T17:56:57;5.00;;;4.47;;
35743;SDS011;21867;52.012;4.324;2023-04-01T18:03:16;4.30;;;3.40;;
35743;SDS011;21867;52.012;4.324;2023-04-01T18:05:58;5.07;;;4.60;;
35743;SDS011;21867;52.012;4.324;2023-04-01T18:08:35;3.97;;;3.57;;
35743;SDS011;21867;52.012;4.324;2023-04-01T18:11:08;5.70;;;4.60;;
35743;SDS011;21867;52.012;4.324;2023-04-01T18:16:37;2.90;;;2.77;;
35743;SDS011;21867;52.012;4.324;2023-04-01T18:19:10;4.80;;;4.40;;
35743;SDS011;21867;52.012;4.324;2023-04-01T18:21:43;4.00;;;3.70;;
35743;SDS011;21867;52.012;4.324;2023-04-01T18:24:16;3.90;;;3.50;;
35743;SDS011;21867;52.012;4.324;2023-04-01T18:26:46;5.97;;;4.33;;
35743;SDS011;21867;52.012;4.324;2023-04-01T18:32:05;4.57;;;4.17;;
35743;SDS011;21867;52.012;4.324;2023-04-01T18:34:39;5.43;;;4.33;;
35743;SDS011;21867;52.012;4.324;2023-04-01T18:37:12;3.60;;;3.40;;
35743;SDS011;21867;52.012;4.324;2023-04-01T18:39:52;3.83;;;3.53;;
35743;SDS011;21867;52.012;4.324;2023-04-01T18:42:38;3.87;;;3.60;;
35743;SDS011;21867;52.012;4.324;2023-04-01T18:48:30;4.90;;;4.40;;
35743;SDS011;21867;52.012;4.324;2023-04-01T18:51:01;3.87;;;3.57;;
35743;SDS011;21867;52.012;4.324;2023-04-01T18:53:30;4.10;;;3.80;;
35743;SDS011;21867;52.012;4.324;2023-04-01T18:56:03;4.30;;;3.63;;
35743;SDS011;21867;52.012;4.324;2023-04-01T19:01:28;3.80;;;3.50;;
35743;SDS011;21867;52.012;4.324;2023-04-01T19:04:07;4.57;;;4.17;;
35743;SDS011;21867;52.012;4.324;2023-04-01T19:06:41;6.43;;;5.83;;
35743;SDS011;21867;52.012;4.324;2023-04-01T19:09:17;4.43;;;3.97;;
35743;SDS011;21867;52.012;4.324;2023-04-01T19:15:48;7.03;;;5.30;;
35743;SDS011;21867;52.012;4.324;2023-04-01T19:18:23;4.60;;;4.30;;
35743;SDS011;21867;52.012;4.324;2023-04-01T19:20:53;5.30;;;4.80;;
35743;SDS011;21867;52.012;4.324;2023-04-01T19:26:05;4.83;;;4.43;;
35743;SDS011;21867;52.012;4.324;2023-04-01T19:31:19;4.80;;;4.40;;
35743;SDS011;21867;52.012;4.324;2023-04-01T19:33:52;4.37;;;4.00;;
35743;SDS011;21867;52.012;4.324;2023-04-01T19:36:24;4.17;;;3.83;;
35743;SDS011;21867;52.012;4.324;2023-04-01T19:39:09;5.07;;;4.60;;
35743;SDS011;21867;52.012;4.324;2023-04-01T19:41:55;5.70;;;5.13;;
35743;SDS011;21867;52.012;4.324;2023-04-01T19:44:51;5.30;;;4.83;;
35743;SDS011;21867;52.012;4.324;2023-04-01T19:47:29;5.90;;;5.40;;
35743;SDS011;21867;52.012;4.324;2023-04-01T19:50:04;4.70;;;4.30;;
35743;SDS011;21867;52.012;4.324;2023-04-01T19:52:35;5.90;;;5.40;;
35743;SDS011;21867;52.012;4.324;2023-04-01T19:55:06;5.70;;;5.20;;
35743;SDS011;21867;52.012;4.324;2023-04-01T19:57:38;6.93;;;5.93;;
35743;SDS011;21867;52.012;4.324;2023-04-01T20:00:15;5.37;;;4.20;;
35743;SDS011;21867;52.012;4.324;2023-04-01T20:02:55;4.53;;;4.17;;
35743;SDS011;21867;52.012;4.324;2023-04-01T20:05:36;7.10;;;6.17;;
35743;SDS011;21867;52.012;4.324;2023-04-01T20:14:09;7.57;;;5.87;;
35743;SDS011;21867;52.012;4.324;2023-04-01T20:16:59;5.53;;;4.97;;
35743;SDS011;21867;52.012;4.324;2023-04-01T20:19:30;6.03;;;5.40;;
35743;SDS011;21867;52.012;4.324;2023-04-01T20:22:00;6.43;;;5.87;;
35743;SDS011;21867;52.012;4.324;2023-04-01T20:24:30;5.60;;;5.10;;
35743;SDS011;21867;52.012;4.324;2023-04-01T20:27:00;5.53;;;5.03;;
35743;SDS011;21867;52.012;4.324;2023-04-01T20:29:41;6.07;;;5.47;;
35743;SDS011;21867;52.012;4.324;2023-04-01T20:32:18;6.27;;;5.63;;
35743;SDS011;21867;52.012;4.324;2023-04-01T20:35:01;6.87;;;5.30;;
35743;SDS011;21867;52.012;4.324;2023-04-01T20:37:36;4.97;;;4.57;;
35743;SDS011;21867;52.012;4.324;2023-04-01T20:46:07;6.40;;;5.40;;
35743;SDS011;21867;52.012;4.324;2023-04-01T20:51:26;5.80;;;5.30;;
35743;SDS011;21867;52.012;4.324;2023-04-01T20:53:58;6.97;;;6.10;;
35743;SDS011;21867;52.012;4.324;2023-04-01T20:56:34;6.13;;;5.50;;
35743;SDS011;21867;52.012;4.324;2023-04-01T20:59:09;6.77;;;6.07;;
35743;SDS011;21867;52.012;4.324;2023-04-01T21:01:41;5.83;;;5.33;;
35743;SDS011;21867;52.012;4.324;2023-04-01T21:04:18;7.27;;;6.17;;
35743;SDS011;21867;52.012;4.324;2023-04-01T21:06:53;6.90;;;5.30;;
35743;SDS011;21867;52.012;4.324;2023-04-01T21:09:29;8.90;;;5.23;;
35743;SDS011;21867;52.012;4.324;2023-04-01T21:12:05;5.83;;;5.33;;
35743;SDS011;21867;52.012;4.324;2023-04-01T21:14:44;10.30;;;6.63;;
35743;SDS011;21867;52.012;4.324;2023-04-01T21:17:15;6.90;;;6.30;;
35743;SDS011;21867;52.012;4.324;2023-04-01T21:19:49;6.20;;;5.67;;
35743;SDS011;21867;52.012;4.324;2023-04-01T21:25:22;6.83;;;6.13;;